Weather at Warsaw Chopin Airport

Public forecast

Using degrees Celsius for public forecast. Weather courtesy of forecast.io.

Current aviation weather report (METAR) for Warsaw Chopin Airport

Retrieved 2021/07/30 01:00 UTC (16 minutes ago):

EPWA 300100Z 24005KT CAVOK 18/13 Q1011 NOSIG

Aviation forecast (TAF) for Warsaw Chopin Airport

Retrieved 2021-07-30 00:00 UTC (1 hour ago):

TAF EPWA 292330Z 3000/3024 23003KT CAVOK BECMG 3006/3009 25013KT TEMPO 3008/3016 26015G26KT BECMG 3017/3020 VRB02KT